TAR374 DTTA-DAAG
Flight info
| Callsign | TAR374 |
|---|---|
| Flight time | 1h 3m |
| Altitude | 24000 |
| Route | KEMIR2A KEMIR A411 BJA DCT 37N004E DCT ZEM |
| Aircraft | A320/M-SDE3FGHIRWY/LB1 |
Departure
| Time | 2026-04-28 19:54 |
|---|---|
| Airport | Tunis Carthage International Airport (DTTA) |
Arrival
| Time | 2026-04-28 20:57 |
|---|---|
| Airport | Houari Boumediene Airport (DAAG) |
| Time | Latitude | Longitude | Altitude | Speed | Heading |
|---|---|---|---|---|---|
| 2026-04-28 19:22 | 36.84325 | 10.21855 | 29 ft | 0 kts | 282° |
| 2026-04-28 19:27 | 36.84325 | 10.21856 | 29 ft | 0 kts | 282° |
| 2026-04-28 19:37 | 36.84325 | 10.21857 | 31 ft | 0 kts | 282° |
| 2026-04-28 19:41 | 36.84323 | 10.21864 | 30 ft | 4 kts | 282° |
| 2026-04-28 19:41 | 36.84318 | 10.21897 | 31 ft | 6 kts | 282° |
| 2026-04-28 19:42 | 36.84310 | 10.21927 | 31 ft | 6 kts | 310° |
| 2026-04-28 19:42 | 36.84290 | 10.21941 | 31 ft | 6 kts | 3° |
| 2026-04-28 19:42 | 36.84274 | 10.21938 | 30 ft | 17 kts | 12° |
| 2026-04-28 19:45 | 36.84286 | 10.21942 | 30 ft | 3 kts | 12° |
| 2026-04-28 19:45 | 36.84317 | 10.21949 | 30 ft | 8 kts | 12° |
| 2026-04-28 19:45 | 36.84383 | 10.21969 | 30 ft | 8 kts | 12° |
| 2026-04-28 19:46 | 36.84429 | 10.21989 | 30 ft | 6 kts | 32° |
| 2026-04-28 19:46 | 36.84457 | 10.22024 | 30 ft | 5 kts | 53° |
| 2026-04-28 19:46 | 36.84481 | 10.22064 | 30 ft | 7 kts | 53° |
| 2026-04-28 19:46 | 36.84502 | 10.22122 | 30 ft | 8 kts | 83° |
| 2026-04-28 19:47 | 36.84492 | 10.22198 | 30 ft | 9 kts | 98° |
| 2026-04-28 19:47 | 36.84521 | 10.22262 | 30 ft | 9 kts | 24° |
| 2026-04-28 19:47 | 36.84579 | 10.22280 | 30 ft | 8 kts | 13° |
| 2026-04-28 19:47 | 36.84630 | 10.22295 | 30 ft | 7 kts | 13° |
| 2026-04-28 19:48 | 36.84674 | 10.22307 | 30 ft | 6 kts | 11° |
| 2026-04-28 19:48 | 36.84747 | 10.22325 | 30 ft | 16 kts | 13° |
| 2026-04-28 19:48 | 36.84862 | 10.22356 | 30 ft | 16 kts | 12° |
| 2026-04-28 19:48 | 36.84957 | 10.22386 | 31 ft | 12 kts | 10° |
| 2026-04-28 19:49 | 36.85015 | 10.22334 | 31 ft | 11 kts | 296° |
| 2026-04-28 19:49 | 36.85043 | 10.22254 | 31 ft | 9 kts | 292° |
| 2026-04-28 19:49 | 36.85076 | 10.22152 | 31 ft | 18 kts | 292° |
| 2026-04-28 19:49 | 36.85135 | 10.21978 | 30 ft | 25 kts | 292° |
| 2026-04-28 19:50 | 36.85213 | 10.21755 | 30 ft | 12 kts | 300° |
| 2026-04-28 19:50 | 36.85244 | 10.21718 | 30 ft | 2 kts | 332° |
| 2026-04-28 19:50 | 36.85305 | 10.21727 | 30 ft | 11 kts | 23° |
| 2026-04-28 19:51 | 36.85316 | 10.21734 | 28 ft | 0 kts | 25° |
| 2026-04-28 19:51 | 36.85320 | 10.21735 | 29 ft | 4 kts | 24° |
| 2026-04-28 19:51 | 36.85395 | 10.21801 | 32 ft | 15 kts | 73° |
| 2026-04-28 19:52 | 36.85393 | 10.21870 | 32 ft | 0 kts | 112° |
| 2026-04-28 19:52 | 36.85392 | 10.21873 | 32 ft | 1 kts | 112° |
| 2026-04-28 19:53 | 36.85390 | 10.21877 | 32 ft | 1 kts | 112° |
| 2026-04-28 19:53 | 36.85389 | 10.21881 | 32 ft | 0 kts | 112° |
| 2026-04-28 19:53 | 36.85363 | 10.21960 | 32 ft | 36 kts | 113° |
| 2026-04-28 19:54 | 36.85168 | 10.22546 | 35 ft | 107 kts | 112° |
| 2026-04-28 19:54 | 36.84804 | 10.23638 | 110 ft | 155 kts | 114° |
| 2026-04-28 19:54 | 36.84335 | 10.24822 | 727 ft | 155 kts | 127° |
| 2026-04-28 19:54 | 36.83491 | 10.25605 | 1366 ft | 153 kts | 164° |
| 2026-04-28 19:55 | 36.82419 | 10.25572 | 1926 ft | 166 kts | 198° |
| 2026-04-28 19:55 | 36.81504 | 10.24544 | 2223 ft | 198 kts | 241° |
| 2026-04-28 19:55 | 36.81424 | 10.22728 | 2612 ft | 228 kts | 286° |
| 2026-04-28 19:55 | 36.82426 | 10.21170 | 3282 ft | 239 kts | 329° |
| 2026-04-28 19:56 | 36.84028 | 10.20732 | 4055 ft | 241 kts | 9° |
| 2026-04-28 19:56 | 36.85547 | 10.21565 | 4777 ft | 243 kts | 36° |
| 2026-04-28 19:56 | 36.87054 | 10.22606 | 5228 ft | 260 kts | 13° |
| 2026-04-28 19:56 | 36.88855 | 10.22497 | 5870 ft | 265 kts | 336° |
| 2026-04-28 19:57 | 36.90325 | 10.21114 | 6408 ft | 267 kts | 300° |
| 2026-04-28 19:57 | 36.90805 | 10.19002 | 7443 ft | 251 kts | 265° |
| 2026-04-28 19:57 | 36.90264 | 10.16887 | 7911 ft | 268 kts | 232° |
| 2026-04-28 19:57 | 36.88820 | 10.15366 | 8587 ft | 277 kts | 214° |
| 2026-04-28 19:58 | 36.87389 | 10.13746 | 9309 ft | 282 kts | 239° |
| 2026-04-28 19:58 | 36.86788 | 10.11417 | 9827 ft | 286 kts | 267° |
| 2026-04-28 19:58 | 36.86815 | 10.08935 | 9949 ft | 290 kts | 270° |
| 2026-04-28 19:58 | 36.86793 | 10.06337 | 10027 ft | 313 kts | 268° |
| 2026-04-28 19:59 | 36.86707 | 10.03577 | 10258 ft | 322 kts | 267° |
| 2026-04-28 19:59 | 36.86625 | 10.00768 | 11074 ft | 325 kts | 268° |
| 2026-04-28 19:59 | 36.86568 | 9.97938 | 11903 ft | 327 kts | 269° |
| 2026-04-28 19:59 | 36.86521 | 9.95090 | 12729 ft | 329 kts | 269° |
| 2026-04-28 20:00 | 36.86478 | 9.92222 | 13533 ft | 332 kts | 269° |
| 2026-04-28 20:00 | 36.86430 | 9.89332 | 14267 ft | 334 kts | 269° |
| 2026-04-28 20:00 | 36.86382 | 9.86418 | 14947 ft | 337 kts | 269° |
| 2026-04-28 20:00 | 36.86332 | 9.83474 | 15610 ft | 341 kts | 269° |
| 2026-04-28 20:01 | 36.86277 | 9.80541 | 16230 ft | 345 kts | 268° |
| 2026-04-28 20:01 | 36.86217 | 9.77525 | 16882 ft | 349 kts | 268° |
| 2026-04-28 20:01 | 36.86155 | 9.74481 | 17509 ft | 353 kts | 268° |
| 2026-04-28 20:01 | 36.86093 | 9.71401 | 18136 ft | 357 kts | 269° |
| 2026-04-28 20:02 | 36.86029 | 9.68288 | 18700 ft | 360 kts | 268° |
| 2026-04-28 20:02 | 36.85962 | 9.65152 | 19284 ft | 362 kts | 268° |
| 2026-04-28 20:02 | 36.85892 | 9.61999 | 19878 ft | 365 kts | 268° |
| 2026-04-28 20:02 | 36.85823 | 9.58827 | 20477 ft | 367 kts | 268° |
| 2026-04-28 20:03 | 36.85756 | 9.55637 | 21076 ft | 368 kts | 268° |
| 2026-04-28 20:03 | 36.85715 | 9.53720 | 21432 ft | 370 kts | 268° |
| 2026-04-28 20:03 | 36.85649 | 9.50626 | 21999 ft | 372 kts | 268° |
| 2026-04-28 20:03 | 36.85579 | 9.47392 | 22587 ft | 374 kts | 268° |
| 2026-04-28 20:04 | 36.85506 | 9.44131 | 23127 ft | 378 kts | 268° |
| 2026-04-28 20:04 | 36.85430 | 9.40846 | 23658 ft | 380 kts | 268° |
| 2026-04-28 20:04 | 36.85352 | 9.37531 | 23921 ft | 382 kts | 268° |
| 2026-04-28 20:04 | 36.85272 | 9.34219 | 23988 ft | 381 kts | 267° |
| 2026-04-28 20:05 | 36.85194 | 9.30911 | 23999 ft | 381 kts | 268° |
| 2026-04-28 20:05 | 36.85115 | 9.27603 | 23993 ft | 381 kts | 268° |
| 2026-04-28 20:05 | 36.85036 | 9.24341 | 23984 ft | 381 kts | 267° |
| 2026-04-28 20:05 | 36.84955 | 9.21074 | 23970 ft | 381 kts | 267° |
| 2026-04-28 20:06 | 36.84873 | 9.17767 | 23958 ft | 381 kts | 267° |
| 2026-04-28 20:06 | 36.84791 | 9.14461 | 23952 ft | 381 kts | 267° |
| 2026-04-28 20:06 | 36.84707 | 9.11152 | 23943 ft | 381 kts | 267° |
| 2026-04-28 20:06 | 36.84624 | 9.07846 | 23936 ft | 381 kts | 267° |
| 2026-04-28 20:07 | 36.84539 | 9.04538 | 23925 ft | 382 kts | 267° |
| 2026-04-28 20:07 | 36.84481 | 9.02342 | 23922 ft | 382 kts | 267° |
| 2026-04-28 20:07 | 36.84364 | 8.97911 | 23915 ft | 382 kts | 267° |
| 2026-04-28 20:07 | 36.84277 | 8.94642 | 23911 ft | 382 kts | 267° |
| 2026-04-28 20:08 | 36.84189 | 8.91329 | 23908 ft | 382 kts | 267° |
| 2026-04-28 20:08 | 36.84101 | 8.88014 | 23906 ft | 382 kts | 267° |
| 2026-04-28 20:08 | 36.84010 | 8.84700 | 23908 ft | 382 kts | 267° |
| 2026-04-28 20:08 | 36.83918 | 8.81387 | 23909 ft | 382 kts | 267° |
| 2026-04-28 20:09 | 36.83826 | 8.78073 | 23911 ft | 382 kts | 267° |
| 2026-04-28 20:09 | 36.83733 | 8.74761 | 23913 ft | 382 kts | 267° |
| 2026-04-28 20:09 | 36.83638 | 8.71450 | 23921 ft | 382 kts | 267° |
| 2026-04-28 20:09 | 36.83542 | 8.68132 | 23922 ft | 382 kts | 267° |
| 2026-04-28 20:10 | 36.83447 | 8.64859 | 23930 ft | 382 kts | 267° |
| 2026-04-28 20:10 | 36.83387 | 8.61539 | 23928 ft | 383 kts | 268° |
| 2026-04-28 20:10 | 36.83378 | 8.58220 | 23933 ft | 383 kts | 269° |
| 2026-04-28 20:10 | 36.83398 | 8.54897 | 23937 ft | 383 kts | 269° |
| 2026-04-28 20:11 | 36.83426 | 8.51576 | 23944 ft | 383 kts | 269° |
| 2026-04-28 20:11 | 36.83448 | 8.48255 | 23950 ft | 383 kts | 269° |
| 2026-04-28 20:11 | 36.83458 | 8.44932 | 23953 ft | 383 kts | 269° |
| 2026-04-28 20:11 | 36.83459 | 8.41613 | 23953 ft | 383 kts | 269° |
| 2026-04-28 20:12 | 36.83456 | 8.38292 | 23950 ft | 383 kts | 269° |
| 2026-04-28 20:12 | 36.83449 | 8.35014 | 23950 ft | 383 kts | 269° |
| 2026-04-28 20:12 | 36.83441 | 8.31694 | 23945 ft | 383 kts | 268° |
| 2026-04-28 20:12 | 36.83436 | 8.29449 | 23945 ft | 383 kts | 268° |
| 2026-04-28 20:13 | 36.83427 | 8.25047 | 23943 ft | 383 kts | 268° |
| 2026-04-28 20:13 | 36.83418 | 8.21725 | 23936 ft | 383 kts | 268° |
| 2026-04-28 20:13 | 36.83407 | 8.18403 | 23929 ft | 383 kts | 268° |
| 2026-04-28 20:13 | 36.83398 | 8.15081 | 23923 ft | 383 kts | 268° |
| 2026-04-28 20:14 | 36.83391 | 8.11761 | 23918 ft | 383 kts | 268° |
| 2026-04-28 20:14 | 36.83384 | 8.08439 | 23915 ft | 383 kts | 268° |
| 2026-04-28 20:14 | 36.83373 | 8.05164 | 23911 ft | 383 kts | 268° |
| 2026-04-28 20:14 | 36.83358 | 8.01841 | 23905 ft | 383 kts | 268° |
| 2026-04-28 20:15 | 36.83342 | 7.98521 | 23901 ft | 383 kts | 268° |
| 2026-04-28 20:15 | 36.83326 | 7.95204 | 23900 ft | 382 kts | 268° |
| 2026-04-28 20:15 | 36.83309 | 7.91895 | 23892 ft | 381 kts | 268° |
| 2026-04-28 20:15 | 36.83292 | 7.88593 | 23892 ft | 380 kts | 268° |
| 2026-04-28 20:16 | 36.83273 | 7.85289 | 23892 ft | 380 kts | 268° |
| 2026-04-28 20:16 | 36.83254 | 7.81990 | 23895 ft | 380 kts | 268° |
| 2026-04-28 20:16 | 36.83229 | 7.78689 | 23892 ft | 380 kts | 268° |
| 2026-04-28 20:16 | 36.83195 | 7.75436 | 23892 ft | 380 kts | 268° |
| 2026-04-28 20:17 | 36.83157 | 7.72138 | 23894 ft | 380 kts | 268° |
| 2026-04-28 20:17 | 36.83118 | 7.68839 | 23895 ft | 380 kts | 268° |
| 2026-04-28 20:17 | 36.83081 | 7.65541 | 23898 ft | 380 kts | 268° |
| 2026-04-28 20:17 | 36.83044 | 7.62241 | 23902 ft | 380 kts | 268° |
| 2026-04-28 20:18 | 36.83006 | 7.58944 | 23913 ft | 380 kts | 268° |
| 2026-04-28 20:18 | 36.82981 | 7.56759 | 23909 ft | 380 kts | 268° |
| 2026-04-28 20:18 | 36.82928 | 7.52352 | 23913 ft | 380 kts | 267° |
| 2026-04-28 20:18 | 36.82886 | 7.49059 | 23934 ft | 379 kts | 267° |
| 2026-04-28 20:19 | 36.82843 | 7.45813 | 23932 ft | 379 kts | 267° |
| 2026-04-28 20:19 | 36.82799 | 7.42520 | 23930 ft | 379 kts | 267° |
| 2026-04-28 20:19 | 36.82755 | 7.39227 | 23930 ft | 379 kts | 267° |
| 2026-04-28 20:19 | 36.82712 | 7.35934 | 23931 ft | 379 kts | 267° |
| 2026-04-28 20:20 | 36.82668 | 7.32644 | 23938 ft | 379 kts | 267° |
| 2026-04-28 20:20 | 36.82623 | 7.29353 | 23936 ft | 379 kts | 267° |
| 2026-04-28 20:20 | 36.82577 | 7.26061 | 23933 ft | 379 kts | 267° |
| 2026-04-28 20:20 | 36.82530 | 7.22771 | 23933 ft | 379 kts | 267° |
| 2026-04-28 20:21 | 36.82482 | 7.19482 | 23929 ft | 379 kts | 267° |
| 2026-04-28 20:21 | 36.82432 | 7.16236 | 23939 ft | 379 kts | 267° |
| 2026-04-28 20:21 | 36.82379 | 7.12946 | 23938 ft | 379 kts | 267° |
| 2026-04-28 20:21 | 36.82325 | 7.09653 | 23939 ft | 379 kts | 267° |
| 2026-04-28 20:22 | 36.82270 | 7.06363 | 23938 ft | 379 kts | 267° |
| 2026-04-28 20:22 | 36.82214 | 7.03072 | 23938 ft | 379 kts | 267° |
| 2026-04-28 20:22 | 36.82159 | 6.99781 | 23939 ft | 379 kts | 267° |
| 2026-04-28 20:22 | 36.82105 | 6.96489 | 23939 ft | 379 kts | 267° |
| 2026-04-28 20:23 | 36.82050 | 6.93199 | 23938 ft | 379 kts | 267° |
| 2026-04-28 20:23 | 36.81996 | 6.89954 | 23939 ft | 379 kts | 267° |
| 2026-04-28 20:23 | 36.81940 | 6.86666 | 23938 ft | 379 kts | 267° |
| 2026-04-28 20:23 | 36.81901 | 6.84441 | 23939 ft | 379 kts | 267° |
| 2026-04-28 20:24 | 36.81823 | 6.80078 | 23938 ft | 381 kts | 267° |
| 2026-04-28 20:24 | 36.81761 | 6.76777 | 23939 ft | 381 kts | 266° |
| 2026-04-28 20:24 | 36.81696 | 6.73475 | 23935 ft | 381 kts | 266° |
| 2026-04-28 20:24 | 36.81631 | 6.70172 | 23938 ft | 381 kts | 266° |
| 2026-04-28 20:25 | 36.81566 | 6.66869 | 23938 ft | 381 kts | 266° |
| 2026-04-28 20:25 | 36.81502 | 6.63613 | 23939 ft | 381 kts | 266° |
| 2026-04-28 20:25 | 36.81436 | 6.60309 | 23938 ft | 381 kts | 266° |
| 2026-04-28 20:25 | 36.81371 | 6.57008 | 23938 ft | 381 kts | 266° |
| 2026-04-28 20:26 | 36.81307 | 6.53706 | 23936 ft | 380 kts | 266° |
| 2026-04-28 20:26 | 36.81241 | 6.50413 | 23935 ft | 379 kts | 266° |
| 2026-04-28 20:26 | 36.81172 | 6.47131 | 23935 ft | 378 kts | 266° |
| 2026-04-28 20:26 | 36.81103 | 6.43848 | 23940 ft | 379 kts | 266° |
| 2026-04-28 20:27 | 36.81030 | 6.40556 | 23937 ft | 380 kts | 266° |
| 2026-04-28 20:27 | 36.80955 | 6.37263 | 23933 ft | 380 kts | 266° |
| 2026-04-28 20:27 | 36.80883 | 6.34014 | 23938 ft | 380 kts | 266° |
| 2026-04-28 20:27 | 36.80812 | 6.30723 | 23934 ft | 379 kts | 266° |
| 2026-04-28 20:28 | 36.80738 | 6.27431 | 23927 ft | 380 kts | 266° |
| 2026-04-28 20:28 | 36.80662 | 6.24140 | 23923 ft | 379 kts | 266° |
| 2026-04-28 20:28 | 36.80586 | 6.20850 | 23913 ft | 379 kts | 266° |
| 2026-04-28 20:28 | 36.80509 | 6.17559 | 23910 ft | 379 kts | 266° |
| 2026-04-28 20:29 | 36.80430 | 6.14269 | 23909 ft | 380 kts | 266° |
| 2026-04-28 20:29 | 36.80352 | 6.10978 | 23904 ft | 379 kts | 266° |
| 2026-04-28 20:29 | 36.80273 | 6.07731 | 23907 ft | 380 kts | 266° |
| 2026-04-28 20:29 | 36.80192 | 6.04426 | 23895 ft | 382 kts | 266° |
| 2026-04-28 20:30 | 36.80109 | 6.01109 | 23897 ft | 383 kts | 266° |
| 2026-04-28 20:30 | 36.80026 | 5.97793 | 23893 ft | 382 kts | 266° |
| 2026-04-28 20:30 | 36.79944 | 5.94478 | 23894 ft | 383 kts | 266° |
| 2026-04-28 20:30 | 36.79862 | 5.91160 | 23892 ft | 383 kts | 266° |
| 2026-04-28 20:31 | 36.79772 | 5.87842 | 23892 ft | 382 kts | 264° |
| 2026-04-28 20:31 | 36.79473 | 5.84554 | 23895 ft | 381 kts | 261° |
| 2026-04-28 20:31 | 36.79144 | 5.81320 | 23895 ft | 381 kts | 261° |
| 2026-04-28 20:31 | 36.78812 | 5.78040 | 23894 ft | 381 kts | 261° |
| 2026-04-28 20:32 | 36.78482 | 5.74757 | 23893 ft | 381 kts | 261° |
| 2026-04-28 20:32 | 36.78154 | 5.71474 | 23899 ft | 381 kts | 261° |
| 2026-04-28 20:32 | 36.77824 | 5.68191 | 23903 ft | 382 kts | 261° |
| 2026-04-28 20:32 | 36.77491 | 5.64902 | 23905 ft | 382 kts | 261° |
| 2026-04-28 20:33 | 36.77155 | 5.61611 | 23922 ft | 383 kts | 261° |
| 2026-04-28 20:33 | 36.76818 | 5.58320 | 23919 ft | 383 kts | 261° |
| 2026-04-28 20:33 | 36.76485 | 5.55076 | 23922 ft | 382 kts | 261° |
| 2026-04-28 20:33 | 36.76150 | 5.51788 | 23920 ft | 382 kts | 261° |
| 2026-04-28 20:34 | 36.75815 | 5.48499 | 23917 ft | 382 kts | 261° |
| 2026-04-28 20:34 | 36.75481 | 5.45209 | 23909 ft | 382 kts | 261° |
| 2026-04-28 20:34 | 36.75145 | 5.41922 | 23908 ft | 382 kts | 261° |
| 2026-04-28 20:34 | 36.74807 | 5.38633 | 23908 ft | 382 kts | 261° |
| 2026-04-28 20:35 | 36.74464 | 5.35346 | 23906 ft | 382 kts | 261° |
| 2026-04-28 20:35 | 36.74118 | 5.32059 | 23906 ft | 383 kts | 261° |
| 2026-04-28 20:35 | 36.73777 | 5.28813 | 23898 ft | 383 kts | 261° |
| 2026-04-28 20:35 | 36.73433 | 5.25526 | 23896 ft | 383 kts | 261° |
| 2026-04-28 20:36 | 36.73088 | 5.22226 | 23895 ft | 383 kts | 261° |
| 2026-04-28 20:36 | 36.72744 | 5.18930 | 23894 ft | 383 kts | 261° |
| 2026-04-28 20:36 | 36.72397 | 5.15636 | 23892 ft | 383 kts | 261° |
| 2026-04-28 20:36 | 36.72047 | 5.12343 | 23894 ft | 383 kts | 261° |
| 2026-04-28 20:37 | 36.71869 | 5.09023 | 23894 ft | 385 kts | 269° |
| 2026-04-28 20:37 | 36.72176 | 5.05698 | 23893 ft | 388 kts | 279° |
| 2026-04-28 20:37 | 36.72933 | 5.02503 | 23894 ft | 391 kts | 286° |
| 2026-04-28 20:37 | 36.73806 | 4.99295 | 23894 ft | 391 kts | 286° |
| 2026-04-28 20:38 | 36.74672 | 4.96084 | 23892 ft | 391 kts | 285° |
| 2026-04-28 20:38 | 36.75534 | 4.92867 | 23898 ft | 392 kts | 285° |
| 2026-04-28 20:38 | 36.76396 | 4.89642 | 23895 ft | 392 kts | 285° |
| 2026-04-28 20:38 | 36.77257 | 4.86426 | 23898 ft | 392 kts | 285° |
| 2026-04-28 20:39 | 36.78124 | 4.83193 | 23897 ft | 392 kts | 285° |
| 2026-04-28 20:39 | 36.78986 | 4.79968 | 23899 ft | 392 kts | 285° |
| 2026-04-28 20:39 | 36.79833 | 4.76788 | 23899 ft | 392 kts | 285° |
| 2026-04-28 20:39 | 36.80691 | 4.73563 | 23901 ft | 392 kts | 285° |
| 2026-04-28 20:40 | 36.81548 | 4.70344 | 23873 ft | 388 kts | 285° |
| 2026-04-28 20:40 | 36.82387 | 4.67190 | 23641 ft | 378 kts | 285° |
| 2026-04-28 20:40 | 36.83203 | 4.64125 | 23400 ft | 367 kts | 285° |
| 2026-04-28 20:40 | 36.83998 | 4.61138 | 23128 ft | 358 kts | 285° |
| 2026-04-28 20:41 | 36.84774 | 4.58209 | 22738 ft | 353 kts | 285° |
| 2026-04-28 20:41 | 36.85539 | 4.55311 | 22282 ft | 350 kts | 285° |
| 2026-04-28 20:41 | 36.86298 | 4.52436 | 21828 ft | 347 kts | 285° |
| 2026-04-28 20:41 | 36.87042 | 4.49620 | 21401 ft | 345 kts | 285° |
| 2026-04-28 20:42 | 36.87790 | 4.46784 | 20971 ft | 343 kts | 285° |
| 2026-04-28 20:42 | 36.88534 | 4.43966 | 20543 ft | 341 kts | 285° |
| 2026-04-28 20:42 | 36.89272 | 4.41155 | 20111 ft | 340 kts | 285° |
| 2026-04-28 20:42 | 36.90005 | 4.38357 | 19691 ft | 338 kts | 285° |
| 2026-04-28 20:43 | 36.90736 | 4.35571 | 19275 ft | 337 kts | 285° |
| 2026-04-28 20:43 | 36.91463 | 4.32796 | 18864 ft | 336 kts | 285° |
| 2026-04-28 20:43 | 36.92188 | 4.30026 | 18446 ft | 335 kts | 285° |
| 2026-04-28 20:43 | 36.92898 | 4.27301 | 18014 ft | 334 kts | 285° |
| 2026-04-28 20:44 | 36.93616 | 4.24545 | 17582 ft | 332 kts | 285° |
| 2026-04-28 20:44 | 36.94331 | 4.21810 | 17172 ft | 330 kts | 285° |
| 2026-04-28 20:44 | 36.95042 | 4.19095 | 16790 ft | 328 kts | 285° |
| 2026-04-28 20:44 | 36.95747 | 4.16393 | 16394 ft | 326 kts | 285° |
| 2026-04-28 20:45 | 36.96445 | 4.13703 | 15999 ft | 324 kts | 285° |
| 2026-04-28 20:45 | 36.97141 | 4.11026 | 15605 ft | 323 kts | 285° |
| 2026-04-28 20:45 | 36.97834 | 4.08359 | 15213 ft | 322 kts | 285° |
| 2026-04-28 20:45 | 36.98514 | 4.05738 | 14848 ft | 321 kts | 285° |
| 2026-04-28 20:46 | 36.99142 | 4.03072 | 14471 ft | 318 kts | 278° |
| 2026-04-28 20:46 | 36.99256 | 4.00342 | 14095 ft | 313 kts | 262° |
| 2026-04-28 20:46 | 36.98779 | 3.97716 | 13714 ft | 309 kts | 246° |
| 2026-04-28 20:46 | 36.97796 | 3.95338 | 13306 ft | 307 kts | 238° |
| 2026-04-28 20:47 | 36.96709 | 3.93056 | 12932 ft | 305 kts | 238° |
| 2026-04-28 20:47 | 36.95629 | 3.90786 | 12551 ft | 303 kts | 237° |
| 2026-04-28 20:47 | 36.94569 | 3.88566 | 12183 ft | 300 kts | 238° |
| 2026-04-28 20:47 | 36.93502 | 3.86330 | 11804 ft | 299 kts | 237° |
| 2026-04-28 20:48 | 36.92441 | 3.84105 | 11410 ft | 297 kts | 238° |
| 2026-04-28 20:48 | 36.91385 | 3.81892 | 11041 ft | 296 kts | 238° |
| 2026-04-28 20:48 | 36.90333 | 3.79688 | 10643 ft | 295 kts | 238° |
| 2026-04-28 20:48 | 36.89283 | 3.77490 | 10263 ft | 294 kts | 238° |
| 2026-04-28 20:49 | 36.88236 | 3.75298 | 9877 ft | 293 kts | 238° |
| 2026-04-28 20:49 | 36.87194 | 3.73115 | 9446 ft | 290 kts | 238° |
| 2026-04-28 20:49 | 36.86178 | 3.70990 | 9055 ft | 283 kts | 238° |
| 2026-04-28 20:49 | 36.85183 | 3.68914 | 8658 ft | 282 kts | 238° |
| 2026-04-28 20:50 | 36.84178 | 3.66825 | 8260 ft | 280 kts | 237° |
| 2026-04-28 20:50 | 36.83176 | 3.64748 | 7853 ft | 279 kts | 237° |
| 2026-04-28 20:50 | 36.82180 | 3.62679 | 7441 ft | 277 kts | 237° |
| 2026-04-28 20:50 | 36.81192 | 3.60621 | 7041 ft | 276 kts | 237° |
| 2026-04-28 20:51 | 36.80212 | 3.58569 | 6615 ft | 275 kts | 239° |
| 2026-04-28 20:51 | 36.79593 | 3.56313 | 6183 ft | 278 kts | 261° |
| 2026-04-28 20:51 | 36.79608 | 3.53926 | 5735 ft | 269 kts | 269° |
| 2026-04-28 20:51 | 36.79673 | 3.52412 | 5489 ft | 260 kts | 269° |
| 2026-04-28 20:52 | 36.79796 | 3.49505 | 4916 ft | 246 kts | 268° |
| 2026-04-28 20:52 | 36.79881 | 3.47415 | 4522 ft | 237 kts | 268° |
| 2026-04-28 20:52 | 36.79961 | 3.45397 | 4167 ft | 228 kts | 268° |
| 2026-04-28 20:52 | 36.80036 | 3.43461 | 3834 ft | 219 kts | 268° |
| 2026-04-28 20:53 | 36.79992 | 3.39940 | 3142 ft | 185 kts | 249° |
| 2026-04-28 20:53 | 36.79453 | 3.38565 | 2778 ft | 169 kts | 229° |
| 2026-04-28 20:53 | 36.78997 | 3.37817 | 2610 ft | 159 kts | 229° |
| 2026-04-28 20:54 | 36.78126 | 3.36381 | 2341 ft | 153 kts | 229° |
| 2026-04-28 20:54 | 36.77501 | 3.35353 | 2145 ft | 147 kts | 229° |
| 2026-04-28 20:54 | 36.76892 | 3.34351 | 1959 ft | 145 kts | 229° |
| 2026-04-28 20:54 | 36.76285 | 3.33352 | 1778 ft | 144 kts | 229° |
| 2026-04-28 20:55 | 36.75681 | 3.32359 | 1602 ft | 143 kts | 230° |
| 2026-04-28 20:55 | 36.75285 | 3.31708 | 1509 ft | 142 kts | 230° |
| 2026-04-28 20:55 | 36.74495 | 3.30409 | 1246 ft | 140 kts | 230° |
| 2026-04-28 20:55 | 36.73909 | 3.29445 | 1049 ft | 139 kts | 231° |
| 2026-04-28 20:56 | 36.73328 | 3.28488 | 850 ft | 139 kts | 231° |
| 2026-04-28 20:56 | 36.72747 | 3.27537 | 637 ft | 140 kts | 231° |
| 2026-04-28 20:56 | 36.72158 | 3.26565 | 418 ft | 141 kts | 231° |
| 2026-04-28 20:56 | 36.71565 | 3.25594 | 202 ft | 142 kts | 231° |
| 2026-04-28 20:57 | 36.71167 | 3.24940 | 88 ft | 138 kts | 230° |
| 2026-04-28 20:57 | 36.70587 | 3.24007 | 82 ft | 63 kts | 233° |
| 2026-04-28 20:57 | 36.70469 | 3.23805 | 81 ft | 39 kts | 236° |
| 2026-04-28 20:57 | 36.70304 | 3.23515 | 72 ft | 19 kts | 252° |
| 2026-04-28 20:58 | 36.70341 | 3.23428 | 75 ft | 19 kts | 323° |
| 2026-04-28 20:58 | 36.70427 | 3.23348 | 71 ft | 0 kts | 323° |
| 2026-04-28 20:58 | 36.70429 | 3.23346 | 71 ft | 1 kts | 323° |
| 2026-04-28 20:58 | 36.70435 | 3.23340 | 65 ft | 4 kts | 323° |
| 2026-04-28 20:59 | 36.70474 | 3.23270 | 66 ft | 14 kts | 275° |
| 2026-04-28 20:59 | 36.70440 | 3.23191 | 69 ft | 17 kts | 232° |
| 2026-04-28 20:59 | 36.70321 | 3.23002 | 69 ft | 25 kts | 233° |
| 2026-04-28 20:59 | 36.70208 | 3.22813 | 70 ft | 30 kts | 232° |
| 2026-04-28 21:00 | 36.70124 | 3.22675 | 68 ft | 30 kts | 233° |
| 2026-04-28 21:00 | 36.69998 | 3.22467 | 64 ft | 30 kts | 232° |
| 2026-04-28 21:00 | 36.69885 | 3.22283 | 64 ft | 24 kts | 233° |
| 2026-04-28 21:00 | 36.69785 | 3.22115 | 64 ft | 25 kts | 234° |
| 2026-04-28 21:01 | 36.69700 | 3.21915 | 70 ft | 18 kts | 288° |
| 2026-04-28 21:01 | 36.69777 | 3.21909 | 70 ft | 9 kts | 41° |
| 2026-04-28 21:01 | 36.69819 | 3.21912 | 68 ft | 11 kts | 346° |
| 2026-04-28 21:01 | 36.69878 | 3.21915 | 66 ft | 4 kts | 42° |
| 2026-04-28 21:02 | 36.69883 | 3.21930 | 68 ft | 0 kts | 81° |